Regione ABRUZZO
Località Giorno Ora Temp. Umid. Relat. Dew Point Press. Atm. Velocità Vento Direz. Vento Precip. Temp.
Min
Temp.
Max
San Salvo3 (CH) 18/06/18 17.20 27.2 °C 49 % 15.5 °C 1010.1 hPa 0.0 Km/h NNW 0.0 mm  20.2 °C 27.4 °C
Vasto (CH) 18/06/18 17.19 28.3 °C 10 % -6.2 °C 1011.0 hPa 13.0 Km/h N 0.0 mm  22.5 °C 28.3 °C
 
 
Regione BASILICATA
Località Giorno Ora Temp. Umid. Relat. Dew Point Press. Atm. Velocità Vento Direz. Vento Precip. Temp.
Min
Temp.
Max
Miglionico (MT) 18/06/18 17.10 24.1 °C 58 % 15.3 °C 1008.7 hPa 9.7 Km/h NNW 0.2 mm  17.0 °C 25.1 °C
 
 
Regione CALABRIA
Località Giorno Ora Temp. Umid. Relat. Dew Point Press. Atm. Velocità Vento Direz. Vento Precip. Temp.
Min
Temp.
Max
Bisignano (CS) 18/06/18 17.18 18.5 °C 90 % 16.8 °C 1014.5 hPa 4.9 Km/h NW 22.8 mm  18.4 °C 29.5 °C
Savelli (KR) 18/06/18 17.19 20.9 °C 62 % 13.3 °C 1010.9 hPa 8.7 Km/h ENE 0.0 mm  15.6 °C 24.1 °C
 
 
Regione CAMPANIA
Località Giorno Ora Temp. Umid. Relat. Dew Point Press. Atm. Velocità Vento Direz. Vento Precip. Temp.
Min
Temp.
Max
Torre Annunziata (NA) 18/06/18 17.15 23.9 °C 3 % -24.0 °C 1013.0 hPa 0.0 Km/h W 1.0 mm  21.0 °C 26.1 °C
 
 
Regione EMILIA ROMAGNA
Località Giorno Ora Temp. Umid. Relat. Dew Point Press. Atm. Velocità Vento Direz. Vento Precip. Temp.
Min
Temp.
Max
Bellaria Igea Marina (RN) 18/06/18 17.18 26.9 °C 64 % 19.5 °C 1014.5 hPa 9.7 Km/h N 0.0 mm  17.7 °C 28.1 °C
Bellaria Igea Marina2 (RN) 18/06/18 17.18 26.8 °C 67 % 20.2 °C 1013.9 hPa 6.4 Km/h N 0.0 mm  17.9 °C 27.9 °C
Bellaria Igea Marina3 (RN) 18/06/18 17.18 27.9 °C 58 % 18.9 °C 1014.6 hPa 14.4 Km/h NE 0.5 mm  16.4 °C 28.8 °C
Carpi (MO) 18/06/18 17.19 30.9 °C 38 % 15.0 °C 1014.2 hPa 0.0 Km/h SE 0.0 mm  20.9 °C 31.6 °C
Filo di Argenta (FE) 18/06/18 17.15 28.1 °C 49 % 16.3 °C 1015.4 hPa 4.3 Km/h NNW 0.0 mm  17.0 °C 28.1 °C
Masiera di Bagnacavallo (RA) 18/06/18 17.15 28.6 °C 49 % 16.8 °C 1011.6 hPa 6.3 Km/h NNW 0.0 mm  17.1 °C 28.5 °C
Migliarino (FE) 18/06/18 17.18 31.3 °C 30 % 11.7 °C 1013.7 hPa 6.1 Km/h N 0.0 mm  20.1 °C 31.5 °C
Ponte San Pellegrino (MO) 18/06/18 17.17 30.1 °C 35 % 12.9 °C 1017.8 hPa 6.1 Km/h SE 0.0 mm  20.3 °C 30.2 °C
Riccione (RN) 18/06/18 17.00 26.5 °C 71 % 20.8 °C 1013.0 hPa 9.7 Km/h NNE 0.0 mm  19.7 °C 26.8 °C
Rimini (RN) 18/06/18 17.00 27.0 °C 64 % 19.6 °C 1015.1 hPa 6.4 Km/h ENE 0.0 mm  19.4 °C 27.8 °C
Rimini Zona Palas (RN) 18/06/18 17.05 27.5 °C 59 % 18.9 °C 1015.1 hPa 6.4 Km/h NNE 0.0 mm  20.2 °C 28.2 °C
San Potito Lugo (RA) 14/06/18 10.55 17.5 °C 94 % 16.5 °C 1011.6 hPa 0.0 Km/h NW 40.2 mm  16.4 °C 19.5 °C
Stiore - Monteveglio (BO) 18/06/18 15.40 27.8 °C 49 % 16.1 °C 1012.3 hPa 3.2 Km/h NW 6.6 mm  17.4 °C 28.0 °C
 
 
Regione FRIULI V.G.
Località Giorno Ora Temp. Umid. Relat. Dew Point Press. Atm. Velocità Vento Direz. Vento Precip. Temp.
Min
Temp.
Max
Budoia (PN) 18/06/18 17.15 25.4 °C 54 % 15.4 °C 1014.6 hPa 14.5 Km/h WNW 0.0 mm  20.0 °C 31.4 °C
Campoformido (UD) 18/06/18 17.18 30.2 °C 39 % 14.7 °C 1014.0 hPa 9.8 Km/h W 0.0 mm  19.7 °C 30.7 °C
Codroipo (UD) 18/06/18 17.18 31.5 °C 32 % 12.8 °C 1013.8 hPa 6.1 Km/h SW 0.0 mm  20.0 °C 32.0 °C
Fogliano Redipuglia (GO) 18/06/18 17.19 33.0 °C 27 % 11.5 °C 1013.8 hPa 4.7 Km/h SSW 0.0 mm  18.3 °C 33.6 °C
Fontanafredda (PN) 18/06/18 17.20 24.0 °C 68 % 17.7 °C 1014.2 hPa 2.4 Km/h SSW 0.0 mm  17.1 °C 29.6 °C
Ovaro loc. Liariis (UD) 18/06/18 17.05 27.7 °C 44 % 14.4 °C 1014.9 hPa 0.0 Km/h SE 0.0 mm  15.2 °C 28.6 °C
Pordenone (PN) 18/06/18 17.10 28.6 °C 45 % 15.5 °C 1014.1 hPa 3.2 Km/h W 0.0 mm  19.8 °C 32.2 °C
Sacile (PN) 18/06/18 17.05 25.3 °C 54 % 15.3 °C 1014.8 hPa 9.7 Km/h WSW 0.0 mm  18.6 °C 31.2 °C
Staranzano (GO) 18/06/18 17.00 31.1 °C 40 % 15.9 °C 1014.1 hPa 1.6 Km/h S 0.0 mm  18.4 °C 31.1 °C
 
 
Regione LAZIO
Località Giorno Ora Temp. Umid. Relat. Dew Point Press. Atm. Velocità Vento Direz. Vento Precip. Temp.
Min
Temp.
Max
Ardea (RM) 18/06/18 17.17 27.1 °C 55 % 17.3 °C 1013.3 hPa 1.0 Km/h W 0.0 mm  19.5 °C 28.6 °C
Capodimonte (VT) 18/06/18 17.15 27.7 °C 43 % 13.9 °C 1013.1 hPa 9.6 Km/h NE 0.0 mm  20.1 °C 27.9 °C
Caprarola Centro Storico (VT) 18/06/18 17.18 25.6 °C 49 % 14.1 °C 1013.0 hPa 5.4 Km/h S 0.0 mm  19.0 °C 27.6 °C
Civita Castellana (VT) 18/06/18 17.19 29.1 °C 44 % 15.6 °C 1012.6 hPa 18.2 Km/h NNE 0.0 mm  18.2 °C 29.3 °C
Marta (VT) 18/06/18 17.15 26.9 °C 55 % 17.1 °C 1012.1 hPa 13.0 Km/h NE 0.0 mm  20.5 °C 27.6 °C
Pomezia (RM) 18/06/18 17.19 27.1 °C 52 % 16.4 °C 1012.0 hPa 11.3 Km/h N 0.0 mm  20.4 °C 28.8 °C
Ronciglione Centro (VT) 18/06/18 17.15 27.2 °C 33 % 9.5 °C 1015.0 hPa 5.4 Km/h SSE 0.0 mm  19.6 °C 28.6 °C
Ronciglione - Ponte Cuzzoli (VT) 16/06/18 10.10 22.7 °C 57 % 13.8 °C 1010.3 hPa 1.6 Km/h W 0.0 mm  15.2 °C 22.8 °C
S. Lorenzo Nuovo (VT) 18/06/18 17.19 25.2 °C 53 % 14.9 °C 1013.6 hPa 13.3 Km/h NNE 0.0 mm  18.2 °C 25.9 °C
Valentano (VT) 18/06/18 17.20 25.2 °C 49 % 13.9 °C 1011.4 hPa 14.5 Km/h NNE 0.0 mm  18.0 °C 26.2 °C
Viterbo Santa Barbara (VT) 18/06/18 10.12 24.5 °C 53 % 14.3 °C 1012.2 hPa 11.1 Km/h N 0.0 mm  18.2 °C 24.5 °C
Viterbo Strada Bagni (VT) 18/06/18 17.19 30.3 °C 40 % 15.0 °C 1012.1 hPa 0.0 Km/h NE 0.0 mm  16.5 °C 30.8 °C
Vitorchiano Pallone (VT) 18/06/18 17.10 27.2 °C 48 % 15.3 °C 1011.2 hPa 14.5 Km/h NE 0.0 mm  18.9 °C 27.8 °C
 
 
Regione LIGURIA
Località Giorno Ora Temp. Umid. Relat. Dew Point Press. Atm. Velocità Vento Direz. Vento Precip. Temp.
Min
Temp.
Max
Arenzano (GE) 18/06/18 17.18 28.8 °C 55 % 18.8 °C 1014.8 hPa 11.3 Km/h SSW 0.0 mm  20.7 °C 29.9 °C
Cosseria Lidora (SV) 18/06/18 17.15 28.2 °C 48 % 16.1 °C 1014.3 hPa 1.6 Km/h NW 0.0 mm  15.6 °C 28.3 °C
Genova Albaro (GE) 18/06/18 17.18 29.8 °C 29 % 9.9 °C 1024.0 hPa 5.3 Km/h S 0.0 mm  0.0 °C 31.5 °C
Genova Erzelli (GE) 18/06/18 17.13 28.3 °C 52 % 17.5 °C 1013.8 hPa 4.8 Km/h S 0.0 mm  20.7 °C 30.1 °C
Loano (SV) 18/06/18 17.15 27.4 °C 63 % 19.7 °C 1014.5 hPa 8.0 Km/h SSW 0.0 mm  20.9 °C 27.9 °C
Moneglia loc. Casale (GE) 18/06/18 17.19 29.1 °C 52 % 18.2 °C 1015.8 hPa 0.0 Km/h S 0.0 mm  19.8 °C 29.6 °C
Moneglia loc. La Secca (GE) 18/06/18 17.19 23.9 °C 82 % 20.6 °C 1014.9 hPa 3.2 Km/h SSW 0.0 mm  20.2 °C 23.9 °C
Ortonovo (SP) 18/06/18 17.19 30.2 °C 44 % 16.6 °C 1015.9 hPa 8.2 Km/h NE 0.0 mm  19.6 °C 31.0 °C
Varese Ligure (SP) 18/06/18 17.19 28.4 °C 10 % -6.1 °C 1031.8 hPa 7.0 Km/h N 0.0 mm  15.9 °C 28.9 °C
 
 
Regione LOMBARDIA
Località Giorno Ora Temp. Umid. Relat. Dew Point Press. Atm. Velocità Vento Direz. Vento Precip. Temp.
Min
Temp.
Max
Bernate Ticino fraz. Casate (MI) 18/06/18 17.18 30.6 °C 44 % 16.9 °C 1013.1 hPa 0.0 Km/h NNW 0.0 mm  19.6 °C 30.6 °C
Calcinato (BS) 18/06/18 17.18 30.4 °C 46 % 17.5 °C 1016.8 hPa 3.2 Km/h W 0.5 mm  20.4 °C 30.9 °C
Cassano Magnago (VA) 18/06/18 17.09 30.4 °C 43 % 16.4 °C 1013.4 hPa 4.8 Km/h WNW 1.5 mm  19.2 °C 31.3 °C
Cavaria con Premezzo (VA) 18/06/18 17.18 29.3 °C 46 % 16.7 °C 1014.0 hPa 2.0 Km/h WSW 1.0 mm  18.8 °C 29.9 °C
Costa Volpino (BG) 18/06/18 17.08 27.8 °C 49 % 16.1 °C 1012.1 hPa 4.8 Km/h SSW 0.4 mm  16.8 °C 27.9 °C
Dorno (PV) 18/06/18 17.18 29.9 °C 48 % 17.7 °C 1014.5 hPa 1.1 Km/h S 0.0 mm  21.3 °C 30.3 °C
Gaggiano (MI) 18/06/18 17.19 29.1 °C 45 % 15.9 °C 1014.5 hPa 4.8 Km/h ESE 0.0 mm  20.7 °C 30.2 °C
Laxolo (BG) 18/06/18 17.16 26.1 °C 52 % 15.5 °C 1016.2 hPa 0.0 Km/h NNW 2.1 mm  16.7 °C 26.9 °C
Lovere (BG) 18/06/18 17.06 27.5 °C 47 % 0.0 °C 1016.0 hPa 0.0 Km/h N 0.0 mm  18.3 °C 28.8 °C
Malnate San Salvatore (VA) 18/06/18 17.00 28.8 °C 49 % 17.0 °C 1015.2 hPa 3.2 Km/h SSW 0.8 mm  16.4 °C 28.9 °C
Mezzana Bigli (PV) 18/06/18 17.15 30.5 °C 43 % 16.5 °C 1013.6 hPa 2.0 Km/h NW 0.0 mm  20.6 °C 30.7 °C
Morbegno (SO) 18/06/18 17.19 30.2 °C 45 % 16.9 °C 1012.1 hPa 22.7 Km/h SW 0.0 mm  19.4 °C 30.5 °C
Rivalta sul Mincio (MN) 18/06/18 17.14 30.2 °C 46 % 17.3 °C 1014.4 hPa 1.7 Km/h ENE 0.2 mm  20.4 °C 31.0 °C
Vigevano (PV) 17/06/18 23.43 27.6 °C 47 % 15.3 °C 1011.1 hPa 0.0 Km/h E 0.0 mm  21.1 °C 31.9 °C
 
 
Regione MARCHE
Località Giorno Ora Temp. Umid. Relat. Dew Point Press. Atm. Velocità Vento Direz. Vento Precip. Temp.
Min
Temp.
Max
Ancona (AN) 18/06/18 17.10 26.4 °C 60 % 18.1 °C 1014.8 hPa 8.0 Km/h W 0.0 mm  20.2 °C 27.9 °C
Ancona loc. Brecce Bianche (AN) 18/06/18 17.09 26.4 °C 56 % 16.9 °C 1021.2 hPa 0.0 Km/h N 0.0 mm  19.4 °C 27.3 °C
Barbara (AN) 18/06/18 09.33 24.9 °C 61 % 16.9 °C 1016.5 hPa 16.2 Km/h N 0.0 mm  19.7 °C 24.9 °C
Ca' Gallo (PU) 18/06/18 17.09 28.7 °C 46 % 15.9 °C 1011.4 hPa 5.5 Km/h NE 0.0 mm  15.4 °C 29.2 °C
Marina di Montemarciano (AN) 18/06/18 17.15 27.1 °C 68 % 20.6 °C 1014.4 hPa 4.8 Km/h NNW 0.0 mm  18.5 °C 27.8 °C
Montelabbate (PU) 18/06/18 17.09 27.9 °C 47 % 15.4 °C 1009.7 hPa 7.9 Km/h NNE 0.0 mm  15.9 °C 28.5 °C
San Benedetto del Tronto (AP) 12/06/18 01.09 25.6 °C 69 % 19.5 °C 1009.5 hPa 1.9 Km/h N 0.0 mm  25.6 °C 25.6 °C
 
 
Regione MOSELLE
Località Giorno Ora Temp. Umid. Relat. Dew Point Press. Atm. Velocità Vento Direz. Vento Precip. Temp.
Min
Temp.
Max
Seremange Erzange (Moselle) 18/06/18 17.20 20.2 °C 77 % 16.0 °C 1023.0 hPa 9.7 Km/h W 0.0 mm  12.4 °C 21.4 °C
 
 
Regione PIEMONTE
Località Giorno Ora Temp. Umid. Relat. Dew Point Press. Atm. Velocità Vento Direz. Vento Precip. Temp.
Min
Temp.
Max
Castelferro (AL) 18/06/18 17.18 29.9 °C 46 % 17.1 °C 1014.8 hPa 6.4 Km/h NE 0.0 mm  17.6 °C 30.7 °C
Magnano (BI) 18/06/18 17.19 27.7 °C 55 % 17.9 °C 1010.4 hPa 0.3 Km/h NE 0.0 mm  15.9 °C 27.8 °C
Monasterolo Torinese (TO) 18/06/18 17.10 27.6 °C 44 % 14.2 °C 1010.5 hPa 3.2 Km/h SSE 5.6 mm  16.8 °C 28.0 °C
Mongrando San Michele (BI) 18/06/18 17.10 28.0 °C 56 % 18.4 °C 1014.3 hPa 1.6 Km/h S 0.0 mm  16.8 °C 28.0 °C
Muzzano (BI) 18/06/18 17.10 27.2 °C 53 % 16.8 °C 1013.0 hPa 1.6 Km/h S 0.0 mm  19.4 °C 27.5 °C
Nichelino (TO) 18/06/18 00.55 24.7 °C 61 % 16.7 °C 1014.9 hPa 1.6 Km/h NNE 0.0 mm  24.4 °C 24.8 °C
Novara (NO) 18/06/18 17.10 30.3 °C 51 % 19.1 °C 1014.4 hPa 1.6 Km/h WSW 0.0 mm  19.9 °C 31.4 °C
Ostana (CN) 16/06/18 16.03 0.0 °C 0 % -37.0 °C 1009.7 hPa 0.0 Km/h --- 0.0 mm  0.0 °C 0.0 °C
Parella (TO) 18/06/18 17.09 27.9 °C 48 % 15.9 °C 1012.8 hPa 0.0 Km/h SE 0.0 mm  18.7 °C 28.6 °C
Pecetto Torinese (TO) 18/06/18 17.09 29.8 °C 41 % 15.2 °C 1014.1 hPa 4.8 Km/h SSW 0.0 mm  20.7 °C 31.2 °C
Pila Valsesia (VC) 18/06/18 17.15 26.8 °C 52 % 16.1 °C 1012.1 hPa 1.6 Km/h ESE 0.6 mm  13.8 °C 27.5 °C
Piovà Massaia (AT) 18/06/18 17.18 28.6 °C 46 % 15.8 °C 1013.1 hPa 0.0 Km/h ESE 0.0 mm  20.2 °C 29.0 °C
Pozzolo Formigaro (AL) 18/06/18 17.10 30.9 °C 46 % 17.9 °C 1015.7 hPa 3.9 Km/h NW 0.0 mm  18.6 °C 31.2 °C
Pray (BI) 18/06/18 17.18 27.8 °C 51 % 16.7 °C 1014.1 hPa 5.0 Km/h ESE 7.6 mm  15.7 °C 28.0 °C
Soriso (NO) 17/06/18 11.30 25.7 °C 67 % 19.1 °C 1013.3 hPa 1.6 Km/h SE 7.9 mm  17.0 °C 25.9 °C
Torino Regio Parco (TO) 18/06/18 17.18 30.1 °C 36 % 13.3 °C 1016.0 hPa 7.4 Km/h ESE 2.4 mm  20.4 °C 30.8 °C
Valenza (AL) 18/06/18 17.10 28.7 °C 51 % 17.6 °C 1013.9 hPa 8.0 Km/h NW 0.0 mm  19.9 °C 28.8 °C
Viozene Toria (CN) 18/06/18 17.19 20.6 °C 58 % 12.1 °C 1025.6 hPa 8.0 Km/h S 3.3 mm  11.0 °C 21.4 °C
 
 
Regione PUGLIA
Località Giorno Ora Temp. Umid. Relat. Dew Point Press. Atm. Velocità Vento Direz. Vento Precip. Temp.
Min
Temp.
Max
Acquaviva delle Fonti (BA) 18/06/18 17.18 25.5 °C 60 % 17.2 °C 1011.6 hPa 13.3 Km/h NE 0.0 mm  18.9 °C 27.1 °C
S. Giovanni Rotondo (FG) 18/06/18 17.10 22.9 °C 57 % 13.9 °C 1011.8 hPa 9.7 Km/h NW 0.4 mm  18.1 °C 24.6 °C
Torremaggiore (FG) 18/06/18 17.20 25.4 °C 61 % 17.4 °C 1011.1 hPa 17.7 Km/h N 0.0 mm  19.2 °C 26.7 °C
Vieste (FG) 18/06/18 17.20 27.7 °C 51 % 16.6 °C 1012.9 hPa 16.5 Km/h WNW 0.0 mm  22.6 °C 27.9 °C
 
 
Regione SARDEGNA
Località Giorno Ora Temp. Umid. Relat. Dew Point Press. Atm. Velocità Vento Direz. Vento Precip. Temp.
Min
Temp.
Max
Bitti (NU) 18/06/18 17.18 27.3 °C 40 % 12.6 °C 1016.1 hPa 18.7 Km/h N 0.0 mm  15.3 °C 27.8 °C
Bonorva (SS) 18/06/18 17.15 25.8 °C 68 % 19.5 °C 1013.3 hPa 4.8 Km/h WSW 0.0 mm  16.3 °C 28.8 °C
Borore (NU) 18/06/18 17.19 22.2 °C 80 % 18.6 °C 1012.7 hPa 8.5 Km/h SSE 3.4 mm  16.2 °C 27.4 °C
Iglesias (CI) 18/06/18 17.09 22.9 °C 68 % 16.7 °C 1016.1 hPa 25.9 Km/h WSW 0.0 mm  17.5 °C 25.7 °C
Oristano (OR) 18/06/18 17.19 23.0 °C 68 % 16.8 °C 1014.0 hPa 1.5 Km/h SW 0.0 mm  18.3 °C 24.7 °C
Orosei (NU) 18/06/18 17.15 27.4 °C 59 % 18.7 °C 1012.8 hPa 9.7 Km/h SE 0.0 mm  20.6 °C 29.6 °C
San Vito (CA) 18/06/18 13.51 19.2 °C 69 % 13.4 °C 1007.2 hPa 5.8 Km/h ENE 0.0 mm  19.2 °C 19.2 °C
Sinnai (CA) 18/06/18 17.00 29.7 °C 40 % 14.6 °C 1013.0 hPa 6.4 Km/h NW 0.0 mm  19.1 °C 30.6 °C
 
 
Regione SICILIA
Località Giorno Ora Temp. Umid. Relat. Dew Point Press. Atm. Velocità Vento Direz. Vento Precip. Temp.
Min
Temp.
Max
Barcellona P.G. Centro (ME) 18/06/18 17.18 25.4 °C 75 % 20.6 °C 1012.1 hPa 19.3 Km/h SW 0.0 mm  19.9 °C 26.4 °C
Barcellona Pozzo di Gotto (ME) 18/06/18 17.18 24.2 °C 76 % 19.7 °C 1011.5 hPa 8.2 Km/h NNE 0.0 mm  20.2 °C 25.2 °C
Brolo c/da Parrazzà (ME) 18/06/18 17.15 23.6 °C 82 % 20.3 °C 1012.6 hPa 13.0 Km/h W 0.0 mm  19.8 °C 23.9 °C
Cefalù (PA) 18/06/18 17.19 24.1 °C 79 % 20.2 °C 1009.2 hPa 6.5 Km/h SW 0.0 mm  20.6 °C 24.1 °C
Mirabella Imbaccari (CT) 18/06/18 17.15 21.7 °C 72 % 16.4 °C 1010.2 hPa 5.6 Km/h ENE 0.4 mm  17.7 °C 28.2 °C
Pace del Mela (ME) 18/06/18 17.18 24.8 °C 70 % 19.0 °C 1013.6 hPa 12.2 Km/h SE 0.0 mm  19.4 °C 26.8 °C
Piraino contr. Fiumara (ME) 18/06/18 17.10 24.9 °C 80 % 21.3 °C 1013.0 hPa 2.0 Km/h SSW 0.0 mm  17.8 °C 25.6 °C
San Cataldo (CL) 11/06/18 23.24 0.0 °C 100 % 0.0 °C 1013.1 hPa 0.0 Km/h NE 0.0 mm  0.0 °C 0.0 °C
San Giovanni la Punta Trappeto (CT) 18/06/18 17.15 22.4 °C 82 % 19.2 °C 1012.0 hPa 6.4 Km/h ENE 0.2 mm  17.9 °C 27.4 °C
 
 
Regione TOSCANA
Località Giorno Ora Temp. Umid. Relat. Dew Point Press. Atm. Velocità Vento Direz. Vento Precip. Temp.
Min
Temp.
Max
Bientina (PI) 18/06/18 17.18 30.4 °C 35 % 13.2 °C 1013.4 hPa 3.6 Km/h NE 0.0 mm  18.2 °C 30.7 °C
Carmignano loc. Seano (PO) 18/06/18 17.19 29.9 °C 42 % 15.6 °C 1014.0 hPa 14.1 Km/h NW 0.0 mm  17.1 °C 29.9 °C
Castelnuovo V.C. (PI) 18/06/18 17.10 25.4 °C 54 % 15.4 °C 1013.2 hPa 0.2 Km/h NNE 0.0 mm  14.6 °C 26.4 °C
Isola d'Elba Marina di Campo (LI) 18/06/18 17.00 27.9 °C 60 % 19.5 °C 1001.6 hPa 16.1 Km/h NNE 0.0 mm  21.6 °C 28.6 °C
Massarosa (LU) 18/06/18 17.19 29.0 °C 40 % 14.0 °C 1002.9 hPa 3.6 Km/h W 0.0 mm  18.9 °C 30.0 °C
Montespertoli (FI) 16/06/18 08.43 20.8 °C 61 % 13.0 °C 1014.4 hPa 4.3 Km/h N 0.0 mm  -17.8 °C 20.8 °C
Montopoli in val d'Arno Loc. Capanne (PI) 18/06/18 17.05 30.1 °C 39 % 14.6 °C 1014.1 hPa 19.5 Km/h NNE 0.0 mm  18.6 °C 30.3 °C
Pisa zona I Passi (PI) 18/06/18 17.19 29.5 °C 37 % 13.3 °C 1015.3 hPa 10.4 Km/h NW 0.0 mm  18.5 °C 30.2 °C
Reggello (FI) 18/06/18 17.19 27.8 °C 40 % 13.0 °C 1016.7 hPa 3.2 Km/h O 0.0 mm  17.3 °C 28.2 °C
Torri (FI) 18/06/18 17.00 29.7 °C 45 % 16.5 °C 1013.8 hPa 0.0 Km/h NW 0.0 mm  14.3 °C 30.8 °C
Torrita di Siena (SI) 18/06/18 17.10 28.8 °C 41 % 14.3 °C 1014.9 hPa 11.3 Km/h NNE 0.0 mm  14.4 °C 29.8 °C
 
 
Regione TRENTINO A. A.
Località Giorno Ora Temp. Umid. Relat. Dew Point Press. Atm. Velocità Vento Direz. Vento Precip. Temp.
Min
Temp.
Max
Ala (TN) 18/06/18 17.18 25.4 °C 61 % 17.3 °C 1014.1 hPa 9.6 Km/h S 3.8 mm  17.2 °C 28.8 °C
Avio (TN) 18/06/18 17.18 28.5 °C 48 % 16.4 °C 1014.7 hPa 2.2 Km/h SSW 16.2 mm  18.0 °C 30.7 °C
Besenello (TN) 18/06/18 17.18 29.4 °C 47 % 16.9 °C 1015.0 hPa 6.5 Km/h ESE 6.6 mm  17.6 °C 30.9 °C
Bolognano di Arco (TN) 18/06/18 09.40 21.9 °C 80 % 18.3 °C 1016.6 hPa 8.0 Km/h SE 3.0 mm  17.3 °C 22.1 °C
Borgo Valsugana (TN) 18/06/18 17.09 23.5 °C 61 % 15.5 °C 1015.8 hPa 0.0 Km/h WSW 4.1 mm  16.8 °C 27.5 °C
Calliano (TN) 18/06/18 17.18 29.1 °C 47 % 16.6 °C 1013.5 hPa 16.1 Km/h SW 5.6 mm  16.8 °C 30.2 °C
Fiavè loc. Ballino (TN) 18/06/18 17.18 22.3 °C 71 % 16.8 °C 1014.7 hPa 2.9 Km/h SW 22.4 mm  13.8 °C 25.8 °C
Gardolo (TN) 18/06/18 17.19 27.5 °C 53 % 17.1 °C 1014.4 hPa 13.7 Km/h SW 17.2 mm  16.9 °C 31.7 °C
Isera loc. Reviano (TN) 18/06/18 17.19 27.6 °C 49 % 15.9 °C 1014.5 hPa 9.5 Km/h SSE 18.7 mm  16.2 °C 29.2 °C
Lavis (TN) 12/06/18 12.55 21.3 °C 78 % 17.2 °C 1008.0 hPa 3.2 Km/h ESE 1.8 mm  18.9 °C 24.5 °C
Margone (TN) 18/06/18 13.35 22.6 °C 53 % 12.5 °C 1017.7 hPa 0.7 Km/h NE 0.0 mm  13.1 °C 23.3 °C
Massone di Arco (TN) 18/06/18 17.19 27.1 °C 48 % 15.1 °C 1014.8 hPa 7.0 Km/h S 3.6 mm  17.7 °C 29.1 °C
Miola di Piné (TN) 18/06/18 17.19 22.9 °C 53 % 12.8 °C 1015.1 hPa 12.6 Km/h S 0.7 mm  14.1 °C 25.0 °C
Padergnone (TN) 18/06/18 17.15 27.5 °C 52 % 16.8 °C 1015.0 hPa 5.2 Km/h SSE 5.2 mm  17.5 °C 30.9 °C
Taio Mollaro (TN) 18/06/18 17.19 30.5 °C 48 % 18.2 °C 1017.2 hPa 1.5 Km/h NW 0.4 mm  16.2 °C 31.0 °C
Trento (TN) 18/06/18 17.20 28.9 °C 45 % 15.8 °C 1013.0 hPa 0.0 Km/h S 4.0 mm  18.4 °C 31.7 °C
Vattaro fraz. Pian dei Pradi (TN) 18/06/18 17.18 23.1 °C 62 % 15.4 °C 1015.5 hPa 4.6 Km/h ESE 4.6 mm  13.9 °C 25.1 °C
 
 
Regione UMBRIA
Località Giorno Ora Temp. Umid. Relat. Dew Point Press. Atm. Velocità Vento Direz. Vento Precip. Temp.
Min
Temp.
Max
Castiglione del Lago (PG) 18/06/18 17.10 28.4 °C 47 % 16.0 °C 1015.5 hPa 9.7 Km/h NNW 0.0 mm  14.5 °C 28.9 °C
Foligno (PG) 18/06/18 16.20 28.4 °C 41 % 13.9 °C 1012.8 hPa 12.9 Km/h NE 0.0 mm  16.3 °C 28.6 °C
Orvieto (TR) 18/06/18 17.16 30.8 °C 37 % 14.4 °C 1012.3 hPa 11.7 Km/h NNE 0.0 mm  15.4 °C 31.4 °C
Perugia San Mariano (PG) 18/06/18 17.05 27.4 °C 45 % 14.3 °C 1013.9 hPa 7.4 Km/h NNW 0.0 mm  16.1 °C 28.9 °C
 
 
Regione VALLE DAOSTA
Località Giorno Ora Temp. Umid. Relat. Dew Point Press. Atm. Velocità Vento Direz. Vento Precip. Temp.
Min
Temp.
Max
Colle del Piccolo San Bernardo La Thuile (AO) 18/06/18 17.18 11.2 °C 73 % 6.7 °C 1020.4 hPa 19.0 Km/h WSW 0.0 mm  4.3 °C 11.5 °C
 
 
Regione VENETO
Località Giorno Ora Temp. Umid. Relat. Dew Point Press. Atm. Velocità Vento Direz. Vento Precip. Temp.
Min
Temp.
Max
Abano (PD) 18/06/18 17.15 30.8 °C 40 % 15.7 °C 1012.8 hPa 1.6 Km/h ENE 0.6 mm  19.3 °C 31.5 °C
Alleghe (BL) 18/06/18 17.18 21.9 °C 49 % 10.7 °C 1006.7 hPa 2.2 Km/h SSE 0.0 mm  12.4 °C 23.9 °C
Alleghe Lago (BL) 18/06/18 17.18 22.8 °C 48 % 11.2 °C 1018.4 hPa 7.0 Km/h NNW 0.0 mm  12.8 °C 24.4 °C
Arquà Polesine (RO) 18/06/18 17.18 31.7 °C 38 % 15.6 °C 1016.1 hPa 3.2 Km/h WNW 0.0 mm  17.1 °C 31.9 °C
Arzignano loc. Castello (VI) 18/06/18 16.45 27.1 °C 54 % 17.0 °C 1013.7 hPa 0.9 Km/h SSW 23.8 mm  16.6 °C 29.1 °C
Arzignano Pugnello (VI) 18/06/18 17.19 28.7 °C 49 % 16.7 °C 1012.9 hPa 3.0 Km/h SSW 21.0 mm  15.8 °C 29.4 °C
Arzignano San Bortolo (VI) 18/06/18 17.09 28.1 °C 48 % 16.1 °C 1012.3 hPa 4.8 Km/h S 9.7 mm  16.7 °C 28.6 °C
Arzignano Tezze (VI) 18/06/18 17.10 28.1 °C 52 % 17.3 °C 1014.3 hPa 0.0 Km/h SE 21.8 mm  16.8 °C 30.6 °C
Badia Calavena loc. San Valentino (VR) 18/06/18 17.18 20.6 °C 66 % 14.0 °C 1013.1 hPa 1.6 Km/h W 8.8 mm  14.1 °C 23.4 °C
Bardolino (VR) 18/06/18 17.18 28.6 °C 44 % 15.0 °C 1008.2 hPa 2.0 Km/h SSW 0.0 mm  20.0 °C 28.8 °C
Beccacivetta (VR) 18/06/18 17.09 30.0 °C 40 % 14.9 °C 1014.8 hPa 3.2 Km/h ESE 17.5 mm  17.1 °C 31.4 °C
Belluno Castion (BL) 18/06/18 17.00 23.8 °C 68 % 17.6 °C 1014.8 hPa 6.4 Km/h E 13.0 mm  15.5 °C 28.2 °C
Brendola (VI) 18/06/18 17.18 32.6 °C 50 % 20.8 °C 1000.6 hPa 2.5 Km/h S 7.8 mm  17.7 °C 32.6 °C
Brugine2 (PD) 18/06/18 17.10 29.4 °C 47 % 17.0 °C 1014.4 hPa 0.0 Km/h NNE 0.4 mm  18.3 °C 30.0 °C
Caprino (VR) 18/06/18 17.18 27.9 °C 48 % 15.9 °C 1012.9 hPa 0.0 Km/h SW 0.0 mm  20.2 °C 29.4 °C
Carceri (PD) 18/06/18 17.02 31.4 °C 38 % 15.6 °C 1014.1 hPa 1.6 Km/h WSW 0.3 mm  19.6 °C 31.8 °C
Cartigliano (VI) 18/06/18 17.18 27.8 °C 48 % 15.8 °C 1013.3 hPa 0.0 Km/h SSW 2.6 mm  17.9 °C 31.0 °C
Castel d'Azzano (VR) 18/06/18 17.05 29.7 °C 40 % 14.7 °C 1065.8 hPa 0.0 Km/h SW 21.6 mm  18.1 °C 29.7 °C
Castelfranco Veneto (TV) 18/06/18 17.10 29.4 °C 44 % 15.9 °C 1014.0 hPa 0.0 Km/h --- 0.0 mm  20.6 °C 30.8 °C
Castelgomberto (VI) 18/06/18 17.19 29.2 °C 41 % 14.6 °C 1013.9 hPa 2.8 Km/h WSW 24.8 mm  16.8 °C 31.7 °C
Cavazzale (VI) 15/06/18 18.05 26.8 °C 40 % 12.1 °C 1009.8 hPa 0.0 Km/h ESE 0.0 mm  17.2 °C 29.2 °C
Cerea (VR) 18/06/18 15.00 31.7 °C 42 % 17.2 °C 1015.2 hPa 3.2 Km/h WSW 11.1 mm  17.8 °C 31.7 °C
Cerea2 (VR) 18/06/18 17.00 31.2 °C 39 % 15.6 °C 1016.1 hPa 2.4 Km/h NNW 9.9 mm  18.1 °C 32.4 °C
Cima Grappa (TV) 18/06/18 17.18 13.6 °C 83 % 10.7 °C 1018.0 hPa 4.3 Km/h ESE 1.8 mm  10.3 °C 16.3 °C
Cismon del Grappa loc. Corlo (VI) 18/06/18 17.18 25.6 °C 63 % 18.0 °C 1017.3 hPa 3.9 Km/h S 10.8 mm  16.4 °C 27.8 °C
Cittadella (PD) 18/06/18 17.18 29.3 °C 45 % 16.1 °C 1013.7 hPa 1.3 Km/h SSW 0.5 mm  19.7 °C 31.1 °C
Cogollo del Cengio (VI) 18/06/18 17.14 24.4 °C 55 % 14.8 °C 1015.2 hPa 4.8 Km/h N 4.9 mm  16.0 °C 26.5 °C
Cologna Veneta Sant'Andrea (VR) 18/06/18 17.10 30.3 °C 51 % 19.0 °C 1014.6 hPa 1.6 Km/h SSE 6.8 mm  18.2 °C 31.5 °C
Colognola ai Colli (VR) 18/06/18 17.10 29.0 °C 51 % 17.8 °C 1015.3 hPa 0.0 Km/h --- 8.2 mm  17.6 °C 30.7 °C
Contrada Dosso Gervasio (VR) 18/06/18 17.15 19.6 °C 78 % 15.6 °C 1014.5 hPa 3.0 Km/h NW 4.4 mm  13.6 °C 21.8 °C
Costa di Vittorio Veneto (TV) 18/06/18 17.09 21.5 °C 72 % 16.2 °C 1014.1 hPa 0.0 Km/h NNE 1.8 mm  19.6 °C 30.1 °C
Crespano del Grappa2 (TV) 18/06/18 17.09 24.9 °C 61 % 16.8 °C 1012.9 hPa 2.6 Km/h NW 1.8 mm  18.6 °C 28.1 °C
Dossobuono (VR) 18/06/18 17.19 29.7 °C 42 % 15.4 °C 1016.1 hPa 9.7 Km/h S 12.0 mm  18.1 °C 30.2 °C
Erbezzo Passo Fittanze (VR) 18/06/18 16.57 16.8 °C 72 % 11.7 °C 1018.8 hPa 5.0 Km/h SSE 6.9 mm  10.7 °C 18.7 °C
Falzè di Piave (TV) 18/06/18 17.19 29.9 °C 43 % 16.0 °C 1015.5 hPa 0.0 Km/h NNE 0.0 mm  18.1 °C 32.3 °C
Farra di Soligo (TV) 18/06/18 17.19 28.8 °C 41 % 14.2 °C 1022.2 hPa 1.4 Km/h N 0.0 mm  19.0 °C 31.3 °C
Feltre Celarda (BL) 18/06/18 17.18 24.4 °C 71 % 18.8 °C 1015.8 hPa 0.4 Km/h W 8.8 mm  15.9 °C 29.8 °C
Ferrara di M.B. (VR) 18/06/18 17.10 17.6 °C 74 % 12.9 °C 1013.0 hPa 0.0 Km/h --- 15.4 mm  11.4 °C 20.8 °C
Fumane Contrada La Ca (VR) 18/06/18 17.09 26.8 °C 53 % 16.4 °C 1019.9 hPa 3.2 Km/h SE 0.0 mm  18.2 °C 29.5 °C
Gallio (VI) 18/06/18 17.05 18.9 °C 74 % 14.2 °C 1015.8 hPa 3.2 Km/h WSW 8.4 mm  11.8 °C 20.1 °C
Jesolo (VE) 13/06/18 13.45 25.4 °C 0 % 0.0 °C 1000.6 hPa 3.2 Km/h SW 0.0 mm  -67.8 °C 28.4 °C
Legnago (VR) 18/06/18 17.15 31.1 °C 42 % 16.7 °C 1014.8 hPa 0.0 Km/h SSE 2.8 mm  18.8 °C 31.4 °C
Lugagnano (VR) 18/06/18 17.18 30.7 °C 45 % 17.2 °C 1013.2 hPa 1.7 Km/h W 13.6 mm  18.1 °C 31.1 °C
Lusiana Sciessere (VI) 18/06/18 17.09 22.7 °C 55 % 13.2 °C 1019.5 hPa 4.7 Km/h NW 6.3 mm  15.4 °C 23.5 °C
Marano Vicentino2 (VI) 18/06/18 17.15 30.1 °C 45 % 16.8 °C 1014.6 hPa 0.0 Km/h SSE 10.9 mm  16.9 °C 30.1 °C
Marostica Valle San Floriano (VI) 18/06/18 17.19 26.6 °C 65 % 19.4 °C 1015.4 hPa 0.0 Km/h WNW 3.0 mm  17.5 °C 28.9 °C
Merlara (PD) 18/06/18 17.10 29.4 °C 46 % 16.6 °C 1014.0 hPa 0.0 Km/h --- 2.3 mm  17.9 °C 29.7 °C
Mizzole (VR) 18/06/18 17.18 24.8 °C 69 % 18.7 °C 1015.4 hPa 7.2 Km/h NW 6.8 mm  17.4 °C 31.7 °C
Molina (VR) 14/06/18 11.19 18.8 °C 49 % 7.8 °C 1012.7 hPa 3.7 Km/h NE 0.0 mm  14.9 °C 18.8 °C
Monselice (PD) 18/06/18 17.17 31.8 °C 36 % 14.9 °C 1015.3 hPa 5.0 Km/h NW 0.0 mm  21.3 °C 32.4 °C
Montebello Vicentino loc. Selva (VI) 18/06/18 17.19 26.8 °C 36 % 10.5 °C 1014.9 hPa 0.6 Km/h SW 12.7 mm  17.7 °C 29.4 °C
Montecchio Maggiore Sant'Urbano (VI) 18/06/18 17.05 28.3 °C 41 % 13.7 °C 1018.8 hPa 4.2 Km/h S 19.6 mm  16.3 °C 30.3 °C
Monteforte d'Alpone2 (VR) 18/06/18 17.15 29.2 °C 42 % 15.0 °C 1013.3 hPa 3.2 Km/h S 11.4 mm  17.6 °C 30.9 °C
Montorio (VR) 18/06/18 17.09 27.6 °C 51 % 16.6 °C 1017.2 hPa 3.2 Km/h WNW 4.3 mm  18.2 °C 31.0 °C
Montorso Vicentino (VI) 18/06/18 17.19 25.8 °C 60 % 17.5 °C 1014.7 hPa 0.0 Km/h SSW 30.8 mm  16.4 °C 27.6 °C
Onara extraurbana (PD) 18/06/18 17.15 28.3 °C 51 % 17.2 °C 1014.2 hPa 0.0 Km/h SW 0.0 mm  19.6 °C 31.2 °C
Oppeano (VR) 12/06/18 22.35 20.4 °C 92 % 19.1 °C 1002.1 hPa 0.0 Km/h --- 0.5 mm  20.3 °C 32.1 °C
Pastrengo (VR) 18/06/18 17.09 31.4 °C 38 % 15.3 °C 1017.9 hPa 2.4 Km/h E 2.8 mm  18.4 °C 31.4 °C
Pastrengo Corné (VR) 18/06/18 17.15 29.1 °C 45 % 16.0 °C 1013.5 hPa 0.0 Km/h SSW 0.4 mm  18.2 °C 30.3 °C
Pedemonte (VR) 18/06/18 17.10 29.6 °C 46 % 16.7 °C 1014.4 hPa 0.0 Km/h SSW 10.6 mm  17.7 °C 30.8 °C
Perarolo di Arcugnano (VI) 18/06/18 17.19 28.8 °C 55 % 18.9 °C 986.2 hPa 0.0 Km/h SSE 7.8 mm  17.8 °C 29.8 °C
Pescantina Are (VR) 18/06/18 17.10 32.9 °C 37 % 16.3 °C 1014.1 hPa 1.6 Km/h SSE 7.9 mm  18.2 °C 32.9 °C
Peschiera del Garda (VR) 18/06/18 17.15 28.8 °C 43 % 15.0 °C 1015.1 hPa 8.0 Km/h N 0.0 mm  20.4 °C 28.9 °C
Pian di Castagné (VR) 18/06/18 17.05 24.1 °C 61 % 16.1 °C 1015.1 hPa 6.4 Km/h WNW 0.0 mm  15.1 °C 26.9 °C
Pian di Castagné2 (VR) 18/06/18 13.09 25.4 °C 49 % 13.9 °C 1018.8 hPa 1.4 Km/h ESE 14.5 mm  14.3 °C 25.4 °C
Pojana Maggiore Cagnano (VI) 18/06/18 17.17 29.5 °C 36 % 12.8 °C 1012.0 hPa 5.0 Km/h S 3.0 mm  18.6 °C 31.4 °C
Ponte San Nicolò (PD) 18/06/18 17.09 31.1 °C 35 % 13.8 °C 1014.2 hPa 4.8 Km/h WSW 0.0 mm  20.8 °C 33.1 °C
Rifugio Bocca di Selva (VR) 17/06/18 23.00 14.8 °C 75 % 10.4 °C 1014.7 hPa 0.0 Km/h W 0.0 mm  13.6 °C 17.1 °C
Rifugio Primaneve (VR) 18/06/18 17.10 14.7 °C 81 % 11.5 °C 1017.4 hPa 3.2 Km/h W 7.1 mm  8.7 °C 14.9 °C
Romano d'Ezzelino Fellette (VI) 18/06/18 17.19 23.8 °C 22 % 0.8 °C 1018.3 hPa 5.9 Km/h NW 5.2 mm  18.1 °C 29.8 °C
Rosolina (RO) 18/06/18 17.05 31.7 °C 41 % 16.8 °C 1015.0 hPa 4.8 Km/h W 0.0 mm  19.0 °C 31.7 °C
S. Giovanni Ilarione2 (VR) 18/06/18 17.10 27.6 °C 62 % 19.6 °C 1014.3 hPa 1.6 Km/h WNW 20.0 mm  16.9 °C 29.9 °C
S. Giovanni Lupatoto (VR) 18/06/18 17.10 29.8 °C 47 % 17.3 °C 1014.8 hPa 1.6 Km/h SSW 20.0 mm  17.8 °C 31.3 °C
S. Lorenzo di Vittorio Veneto (TV) 18/06/18 17.15 21.3 °C 68 % 15.1 °C 1015.8 hPa 3.2 Km/h NW 1.8 mm  18.7 °C 28.1 °C
S. Maria di Zevio Loc. 3 Ponti (VR) 18/06/18 17.19 29.2 °C 46 % 16.7 °C 1016.1 hPa 1.0 Km/h SSW 12.4 mm  16.7 °C 30.9 °C
S. Maria Maddalena (RO) 18/06/18 17.15 29.6 °C 43 % 15.6 °C 1013.9 hPa 0.0 Km/h SSW 0.0 mm  20.5 °C 29.9 °C
S. Martino Lupari (PD) 18/06/18 17.10 28.8 °C 52 % 18.0 °C 667.0 hPa 3.2 Km/h S 0.4 mm  19.6 °C 30.5 °C
S. Zeno di Mont. Prada (VR) 18/06/18 17.10 20.4 °C 69 % 14.5 °C 1013.3 hPa 0.0 Km/h SSW 0.0 mm  16.6 °C 22.3 °C
Salcedo (VI) 18/06/18 17.19 27.0 °C 48 % 15.1 °C 1016.4 hPa 7.0 Km/h SW 7.7 mm  16.9 °C 27.2 °C
San Nazario (VI) 18/06/18 17.04 26.8 °C 59 % 18.1 °C 1014.1 hPa 2.6 Km/h E 5.6 mm  17.9 °C 32.7 °C
San Pietro di Rosà (VI) 18/06/18 17.19 27.7 °C 49 % 16.0 °C 1018.1 hPa 4.6 Km/h N 3.0 mm  18.8 °C 30.8 °C
San Pietro in Cariano (VR) 18/06/18 17.09 29.2 °C 41 % 14.6 °C 1016.1 hPa 6.1 Km/h E 2.8 mm  18.1 °C 30.0 °C
San Zeno di Mont. Loc. Castello (VR) 18/06/18 17.19 22.8 °C 63 % 15.6 °C 1014.6 hPa 10.0 Km/h ENE 0.0 mm  18.5 °C 24.4 °C
Santa Maria di Negrar (VR) 18/06/18 17.09 28.4 °C 51 % 17.3 °C 1016.1 hPa 0.0 Km/h WSW 14.0 mm  17.0 °C 30.5 °C
Sarcedo (VI) 18/06/18 17.19 29.0 °C 44 % 15.5 °C 1013.7 hPa 3.6 Km/h W 14.0 mm  17.4 °C 30.8 °C
Schio (VI) 18/06/18 16.55 29.9 °C 40 % 14.9 °C 1016.1 hPa 1.6 Km/h SSW 4.2 mm  17.7 °C 32.6 °C
Schio Monte Magré (VI) 18/06/18 17.20 27.8 °C 53 % 17.3 °C 0.0 hPa 0.0 Km/h SSW 3.6 mm  16.2 °C 29.1 °C
Soave Borgo Bassano (VR) 18/06/18 17.15 30.6 °C 40 % 15.4 °C 1014.7 hPa 0.0 Km/h WSW 8.0 mm  18.7 °C 32.6 °C
Sona Loc. La Colombara (VR) 18/06/18 17.00 29.2 °C 47 % 16.7 °C 1011.1 hPa 5.0 Km/h W 1.8 mm  18.1 °C 29.3 °C
Tombolo (PD) 18/06/18 17.20 29.6 °C 44 % 16.1 °C 1014.7 hPa 2.4 Km/h SSW 0.2 mm  19.9 °C 31.6 °C
Tregnago Loc. Centro (VR) 18/06/18 17.10 22.6 °C 67 % 16.1 °C 1009.5 hPa 4.8 Km/h NNW 20.6 mm  14.8 °C 25.9 °C
Treviso (TV) 18/06/18 17.18 32.3 °C 31 % 13.0 °C 1006.4 hPa 0.0 Km/h SE 0.0 mm  19.3 °C 33.6 °C
Val Lastaro (VI) 18/06/18 17.15 19.7 °C 64 % 12.8 °C 1016.4 hPa 0.0 Km/h WNW 7.8 mm  10.5 °C 21.2 °C
Valdagno (VI) 18/06/18 17.20 28.2 °C 38 % 12.5 °C 1002.3 hPa 8.6 Km/h ESE 7.5 mm  16.4 °C 30.6 °C
Valdobbiadene San Pietro di Barbozza (TV) 18/06/18 17.15 26.2 °C 58 % 17.3 °C 1013.9 hPa 0.0 Km/h NNW 1.2 mm  18.1 °C 27.4 °C
Valli del Pasubio loc. Gisbenti (VI) 18/06/18 17.20 24.1 °C 70 % 18.3 °C 972.0 hPa 1.4 Km/h W 12.7 mm  15.2 °C 27.9 °C
Vazzo Roveré Veronese (VR) 18/06/18 17.20 20.8 °C 65 % 14.0 °C 1013.1 hPa 0.0 Km/h NW 7.2 mm  13.0 °C 22.3 °C
Verona Bgo Venezia (iz3sly) (VR) 18/06/18 17.10 27.4 °C 61 % 19.3 °C 1013.8 hPa 0.0 Km/h SE 5.8 mm  17.6 °C 31.3 °C
Verona Cadidavid2 (VR) 18/06/18 17.06 30.7 °C 42 % 16.3 °C 1013.5 hPa 4.0 Km/h WSW 19.3 mm  17.5 °C 30.7 °C
Verona Saval3 (VR) 18/06/18 17.09 30.0 °C 38 % 14.2 °C 1015.8 hPa 2.9 Km/h SW 8.6 mm  -17.8 °C 31.7 °C
Vicenza Campedello (VI) 18/06/18 17.28 30.0 °C 48 % 17.8 °C 1015.5 hPa 0.0 Km/h W 4.0 mm  17.6 °C 30.7 °C
Vicenza Moracchino (VI) 18/06/18 17.20 30.8 °C 40 % 15.6 °C 1013.7 hPa 0.0 Km/h SW 4.8 mm  17.8 °C 31.7 °C
Vicenza S. Lazzaro (VI) 18/06/18 17.20 29.6 °C 44 % 16.1 °C 1013.6 hPa 0.0 Km/h W 4.0 mm  18.2 °C 31.4 °C
Vicenza San Gaetano (VI) 18/06/18 17.20 30.3 °C 46 % 17.4 °C 1014.4 hPa 0.0 Km/h SSW 4.4 mm  18.3 °C 30.9 °C
Vigardolo (VI) 18/06/18 17.09 29.5 °C 41 % 14.8 °C 1014.2 hPa 6.1 Km/h NW 3.6 mm  18.0 °C 30.3 °C
Vigasio (VR) 18/06/18 17.10 32.0 °C 35 % 14.6 °C 1013.1 hPa 3.2 Km/h ENE 13.0 mm  18.2 °C 32.4 °C
Villabartolomea (VR) 18/06/18 16.58 29.4 °C 42 % 15.0 °C 1013.8 hPa 4.8 Km/h WNW 5.1 mm  18.7 °C 29.5 °C
Vittorio Veneto Parco Fenderl (TV) 18/06/18 17.00 21.8 °C 66 % 15.2 °C 1016.8 hPa 3.2 Km/h WSW 4.3 mm  19.1 °C 31.6 °C
Volpago del Montello (TV) 18/06/18 17.00 30.1 °C 48 % 17.8 °C 1014.4 hPa 0.0 Km/h SW 0.0 mm  18.2 °C 30.1 °C
 
 
 
(*) = Precipitazioni nelle ultime 24h.
Dati non aggiornati nell'ultima ora.
   
In collaborazione con: